sensor_id;sensor_type;location;lat;lon;timestamp;temperature;humidity
28253;DHT22;15515;45.588;5.276;2022-09-09T00:02:00;21.40;99.90
28253;DHT22;15515;45.588;5.276;2022-09-09T00:04:30;21.50;99.90
28253;DHT22;15515;45.588;5.276;2022-09-09T00:15:21;21.60;99.90
28253;DHT22;15515;45.588;5.276;2022-09-09T00:18:05;21.60;99.90
28253;DHT22;15515;45.588;5.276;2022-09-09T00:20:49;21.70;99.90
28253;DHT22;15515;45.588;5.276;2022-09-09T00:31:41;21.40;99.90
28253;DHT22;15515;45.588;5.276;2022-09-09T00:34:18;21.20;99.90
28253;DHT22;15515;45.588;5.276;2022-09-09T00:36:46;21.40;99.90
28253;DHT22;15515;45.588;5.276;2022-09-09T00:39:47;21.40;99.90
28253;DHT22;15515;45.588;5.276;2022-09-09T00:42:41;21.50;99.90
28253;DHT22;15515;45.588;5.276;2022-09-09T00:45:33;21.50;99.90
28253;DHT22;15515;45.588;5.276;2022-09-09T00:48:05;21.50;99.90
28253;DHT22;15515;45.588;5.276;2022-09-09T00:56:03;21.40;99.90
28253;DHT22;15515;45.588;5.276;2022-09-09T00:58:33;21.40;99.90
28253;DHT22;15515;45.588;5.276;2022-09-09T01:01:08;21.40;99.90
28253;DHT22;15515;45.588;5.276;2022-09-09T01:28:26;20.70;99.90
28253;DHT22;15515;45.588;5.276;2022-09-09T01:31:00;20.70;99.90
28253;DHT22;15515;45.588;5.276;2022-09-09T01:33:35;20.70;99.90
28253;DHT22;15515;45.588;5.276;2022-09-09T01:36:37;20.70;99.90
28253;DHT22;15515;45.588;5.276;2022-09-09T01:39:05;20.60;99.90
28253;DHT22;15515;45.588;5.276;2022-09-09T01:41:32;20.70;99.90
28253;DHT22;15515;45.588;5.276;2022-09-09T01:44:07;20.50;99.90
28253;DHT22;15515;45.588;5.276;2022-09-09T01:46:37;20.20;99.90
28253;DHT22;15515;45.588;5.276;2022-09-09T02:00:14;20.50;99.90
28253;DHT22;15515;45.588;5.276;2022-09-09T02:06:01;20.50;99.90
28253;DHT22;15515;45.588;5.276;2022-09-09T02:08:52;20.50;99.90
28253;DHT22;15515;45.588;5.276;2022-09-09T02:11:22;20.50;99.90
28253;DHT22;15515;45.588;5.276;2022-09-09T02:14:29;20.30;99.90
28253;DHT22;15515;45.588;5.276;2022-09-09T02:17:03;20.30;99.90
28253;DHT22;15515;45.588;5.276;2022-09-09T02:19:58;20.20;99.90
28253;DHT22;15515;45.588;5.276;2022-09-09T02:22:43;20.30;99.90
28253;DHT22;15515;45.588;5.276;2022-09-09T02:25:15;20.40;99.90
28253;DHT22;15515;45.588;5.276;2022-09-09T02:27:45;20.40;99.90
28253;DHT22;15515;45.588;5.276;2022-09-09T02:30:14;20.30;99.90
28253;DHT22;15515;45.588;5.276;2022-09-09T02:32:51;20.30;99.90
28253;DHT22;15515;45.588;5.276;2022-09-09T02:35:23;20.20;99.90
28253;DHT22;15515;45.588;5.276;2022-09-09T02:37:55;20.10;99.90
28253;DHT22;15515;45.588;5.276;2022-09-09T02:40:23;20.10;99.90
28253;DHT22;15515;45.588;5.276;2022-09-09T02:42:57;19.90;99.90
28253;DHT22;15515;45.588;5.276;2022-09-09T02:45:44;19.90;99.90
28253;DHT22;15515;45.588;5.276;2022-09-09T02:51:15;19.60;99.90
28253;DHT22;15515;45.588;5.276;2022-09-09T02:53:50;19.50;99.90
28253;DHT22;15515;45.588;5.276;2022-09-09T02:56:23;19.60;99.90
28253;DHT22;15515;45.588;5.276;2022-09-09T02:58:55;19.70;99.90
28253;DHT22;15515;45.588;5.276;2022-09-09T03:01:23;19.70;99.90
28253;DHT22;15515;45.588;5.276;2022-09-09T03:03:50;19.70;99.90
28253;DHT22;15515;45.588;5.276;2022-09-09T03:06:17;19.70;99.90
28253;DHT22;15515;45.588;5.276;2022-09-09T03:08:50;19.80;99.90
28253;DHT22;15515;45.588;5.276;2022-09-09T03:11:23;19.80;99.90
28253;DHT22;15515;45.588;5.276;2022-09-09T03:13:50;19.80;99.90
28253;DHT22;15515;45.588;5.276;2022-09-09T03:16:19;19.70;99.90
28253;DHT22;15515;45.588;5.276;2022-09-09T03:18:50;19.60;99.90
28253;DHT22;15515;45.588;5.276;2022-09-09T03:21:18;19.60;99.90
28253;DHT22;15515;45.588;5.276;2022-09-09T03:23:46;19.60;99.90
28253;DHT22;15515;45.588;5.276;2022-09-09T03:26:14;19.60;99.90
28253;DHT22;15515;45.588;5.276;2022-09-09T03:28:45;19.60;99.90
28253;DHT22;15515;45.588;5.276;2022-09-09T03:31:16;19.60;99.90
28253;DHT22;15515;45.588;5.276;2022-09-09T03:33:43;19.60;99.90
28253;DHT22;15515;45.588;5.276;2022-09-09T03:36:14;19.60;99.90
28253;DHT22;15515;45.588;5.276;2022-09-09T03:38:42;19.20;99.90
28253;DHT22;15515;45.588;5.276;2022-09-09T03:41:10;19.40;99.90
28253;DHT22;15515;45.588;5.276;2022-09-09T03:43:38;19.40;99.90
28253;DHT22;15515;45.588;5.276;2022-09-09T03:46:05;19.50;99.90
28253;DHT22;15515;45.588;5.276;2022-09-09T03:48:32;19.50;99.90
28253;DHT22;15515;45.588;5.276;2022-09-09T03:51:00;19.50;99.90
28253;DHT22;15515;45.588;5.276;2022-09-09T03:53:30;19.50;99.90
28253;DHT22;15515;45.588;5.276;2022-09-09T03:55:58;19.50;99.90
28253;DHT22;15515;45.588;5.276;2022-09-09T03:58:27;19.40;99.90
28253;DHT22;15515;45.588;5.276;2022-09-09T04:03:29;19.10;99.90
28253;DHT22;15515;45.588;5.276;2022-09-09T04:05:58;19.10;99.90
28253;DHT22;15515;45.588;5.276;2022-09-09T04:08:28;19.00;99.90
28253;DHT22;15515;45.588;5.276;2022-09-09T04:10:55;18.90;99.90
28253;DHT22;15515;45.588;5.276;2022-09-09T04:13:27;18.70;99.90
28253;DHT22;15515;45.588;5.276;2022-09-09T04:15:58;18.70;99.90
28253;DHT22;15515;45.588;5.276;2022-09-09T04:18:26;18.60;99.90
28253;DHT22;15515;45.588;5.276;2022-09-09T04:20:55;18.50;99.90
28253;DHT22;15515;45.588;5.276;2022-09-09T04:23:27;18.60;99.90
28253;DHT22;15515;45.588;5.276;2022-09-09T04:25:58;18.60;99.90
28253;DHT22;15515;45.588;5.276;2022-09-09T04:28:29;18.60;99.90
28253;DHT22;15515;45.588;5.276;2022-09-09T04:31:03;18.60;99.90
28253;DHT22;15515;45.588;5.276;2022-09-09T04:33:31;18.60;99.90
28253;DHT22;15515;45.588;5.276;2022-09-09T04:36:01;18.50;99.90
28253;DHT22;15515;45.588;5.276;2022-09-09T04:38:28;18.60;99.90
28253;DHT22;15515;45.588;5.276;2022-09-09T04:40:56;18.50;99.90
28253;DHT22;15515;45.588;5.276;2022-09-09T04:43:24;18.50;99.90
28253;DHT22;15515;45.588;5.276;2022-09-09T04:45:53;18.40;99.90
28253;DHT22;15515;45.588;5.276;2022-09-09T04:48:23;18.30;99.90
28253;DHT22;15515;45.588;5.276;2022-09-09T04:50:57;18.10;99.90
28253;DHT22;15515;45.588;5.276;2022-09-09T04:53:25;18.00;99.90
28253;DHT22;15515;45.588;5.276;2022-09-09T04:56:01;17.90;99.90
28253;DHT22;15515;45.588;5.276;2022-09-09T04:58:30;17.80;99.90
28253;DHT22;15515;45.588;5.276;2022-09-09T05:01:09;17.90;99.90
28253;DHT22;15515;45.588;5.276;2022-09-09T05:03:40;18.00;99.90
28253;DHT22;15515;45.588;5.276;2022-09-09T05:06:15;18.10;99.90
28253;DHT22;15515;45.588;5.276;2022-09-09T05:08:43;18.10;99.90
28253;DHT22;15515;45.588;5.276;2022-09-09T05:11:22;17.90;99.90
28253;DHT22;15515;45.588;5.276;2022-09-09T05:13:58;17.80;99.90
28253;DHT22;15515;45.588;5.276;2022-09-09T05:16:28;17.90;99.90
28253;DHT22;15515;45.588;5.276;2022-09-09T05:18:55;17.70;99.90
28253;DHT22;15515;45.588;5.276;2022-09-09T05:21:24;17.70;99.90
28253;DHT22;15515;45.588;5.276;2022-09-09T05:23:54;17.60;99.90
28253;DHT22;15515;45.588;5.276;2022-09-09T05:26:23;17.60;99.90
28253;DHT22;15515;45.588;5.276;2022-09-09T05:28:52;17.70;99.90
28253;DHT22;15515;45.588;5.276;2022-09-09T05:31:20;17.70;99.90
28253;DHT22;15515;45.588;5.276;2022-09-09T05:33:50;17.80;99.90
28253;DHT22;15515;45.588;5.276;2022-09-09T05:36:20;17.90;99.90
28253;DHT22;15515;45.588;5.276;2022-09-09T05:38:51;18.00;99.90
28253;DHT22;15515;45.588;5.276;2022-09-09T05:41:21;18.10;99.90
28253;DHT22;15515;45.588;5.276;2022-09-09T05:43:53;18.20;99.90
28253;DHT22;15515;45.588;5.276;2022-09-09T05:46:22;18.10;99.90
28253;DHT22;15515;45.588;5.276;2022-09-09T05:48:55;18.00;99.90
28253;DHT22;15515;45.588;5.276;2022-09-09T05:51:29;18.20;99.90
28253;DHT22;15515;45.588;5.276;2022-09-09T05:54:05;18.20;99.90
28253;DHT22;15515;45.588;5.276;2022-09-09T05:56:36;18.20;99.90
28253;DHT22;15515;45.588;5.276;2022-09-09T05:59:06;18.20;99.90
28253;DHT22;15515;45.588;5.276;2022-09-09T06:01:35;18.30;99.90
28253;DHT22;15515;45.588;5.276;2022-09-09T06:04:04;18.50;99.90
28253;DHT22;15515;45.588;5.276;2022-09-09T06:06:37;18.60;99.90
28253;DHT22;15515;45.588;5.276;2022-09-09T06:09:11;18.70;99.90
28253;DHT22;15515;45.588;5.276;2022-09-09T06:11:41;18.90;99.90
28253;DHT22;15515;45.588;5.276;2022-09-09T06:14:09;19.00;99.90
28253;DHT22;15515;45.588;5.276;2022-09-09T06:16:38;19.00;99.90
28253;DHT22;15515;45.588;5.276;2022-09-09T06:19:13;19.00;99.90
28253;DHT22;15515;45.588;5.276;2022-09-09T06:21:41;18.90;99.90
28253;DHT22;15515;45.588;5.276;2022-09-09T06:24:10;19.10;99.90
28253;DHT22;15515;45.588;5.276;2022-09-09T06:26:41;19.30;99.90
28253;DHT22;15515;45.588;5.276;2022-09-09T06:29:11;19.30;99.90
28253;DHT22;15515;45.588;5.276;2022-09-09T06:31:39;19.30;99.90
28253;DHT22;15515;45.588;5.276;2022-09-09T06:34:17;19.30;99.90
28253;DHT22;15515;45.588;5.276;2022-09-09T06:36:49;19.50;99.90
28253;DHT22;15515;45.588;5.276;2022-09-09T06:39:16;19.70;99.90
28253;DHT22;15515;45.588;5.276;2022-09-09T06:41:44;19.80;99.90
28253;DHT22;15515;45.588;5.276;2022-09-09T06:44:29;19.70;99.90
28253;DHT22;15515;45.588;5.276;2022-09-09T06:47:01;19.80;99.90
28253;DHT22;15515;45.588;5.276;2022-09-09T06:49:28;19.90;99.90
28253;DHT22;15515;45.588;5.276;2022-09-09T06:51:55;20.00;99.90
28253;DHT22;15515;45.588;5.276;2022-09-09T06:54:22;20.20;99.90
28253;DHT22;15515;45.588;5.276;2022-09-09T06:56:50;20.40;99.90
28253;DHT22;15515;45.588;5.276;2022-09-09T06:59:22;20.60;99.90
28253;DHT22;15515;45.588;5.276;2022-09-09T07:01:52;20.80;99.90
28253;DHT22;15515;45.588;5.276;2022-09-09T07:04:21;21.00;99.90
28253;DHT22;15515;45.588;5.276;2022-09-09T07:06:49;21.10;99.90
28253;DHT22;15515;45.588;5.276;2022-09-09T07:09:21;21.20;99.90
28253;DHT22;15515;45.588;5.276;2022-09-09T07:11:52;21.30;99.90
28253;DHT22;15515;45.588;5.276;2022-09-09T07:14:22;21.40;99.90
28253;DHT22;15515;45.588;5.276;2022-09-09T07:17:02;21.40;98.30
28253;DHT22;15515;45.588;5.276;2022-09-09T07:19:34;21.40;99.00
28253;DHT22;15515;45.588;5.276;2022-09-09T07:22:03;21.60;98.10
28253;DHT22;15515;45.588;5.276;2022-09-09T07:24:32;21.80;97.30
28253;DHT22;15515;45.588;5.276;2022-09-09T07:26:59;22.10;96.70
28253;DHT22;15515;45.588;5.276;2022-09-09T07:29:26;22.30;96.20
28253;DHT22;15515;45.588;5.276;2022-09-09T07:31:53;22.50;95.20
28253;DHT22;15515;45.588;5.276;2022-09-09T07:34:26;22.60;93.70
28253;DHT22;15515;45.588;5.276;2022-09-09T07:36:53;22.60;92.90
28253;DHT22;15515;45.588;5.276;2022-09-09T07:39:20;22.80;93.30
28253;DHT22;15515;45.588;5.276;2022-09-09T07:41:51;23.00;92.80
28253;DHT22;15515;45.588;5.276;2022-09-09T07:44:23;23.00;91.80
28253;DHT22;15515;45.588;5.276;2022-09-09T07:47:05;23.20;92.40
28253;DHT22;15515;45.588;5.276;2022-09-09T07:49:36;23.50;91.70
28253;DHT22;15515;45.588;5.276;2022-09-09T07:52:05;23.60;90.40
28253;DHT22;15515;45.588;5.276;2022-09-09T07:54:34;23.70;91.00
28253;DHT22;15515;45.588;5.276;2022-09-09T07:57:04;24.00;90.40
28253;DHT22;15515;45.588;5.276;2022-09-09T07:59:34;24.40;88.40
28253;DHT22;15515;45.588;5.276;2022-09-09T08:02:02;24.80;88.10
28253;DHT22;15515;45.588;5.276;2022-09-09T08:04:32;25.00;86.10
28253;DHT22;15515;45.588;5.276;2022-09-09T08:07:00;25.30;84.50
28253;DHT22;15515;45.588;5.276;2022-09-09T08:09:33;25.40;82.60
28253;DHT22;15515;45.588;5.276;2022-09-09T08:12:07;25.70;80.90
28253;DHT22;15515;45.588;5.276;2022-09-09T08:14:35;25.90;81.00
28253;DHT22;15515;45.588;5.276;2022-09-09T08:17:02;26.00;81.00
28253;DHT22;15515;45.588;5.276;2022-09-09T08:19:32;26.20;79.80
28253;DHT22;15515;45.588;5.276;2022-09-09T08:22:06;26.30;79.00
28253;DHT22;15515;45.588;5.276;2022-09-09T08:24:37;26.30;80.70
28253;DHT22;15515;45.588;5.276;2022-09-09T08:27:04;25.90;80.00
28253;DHT22;15515;45.588;5.276;2022-09-09T08:29:31;25.70;80.50
28253;DHT22;15515;45.588;5.276;2022-09-09T08:31:58;25.70;80.60
28253;DHT22;15515;45.588;5.276;2022-09-09T08:34:27;25.90;80.20
28253;DHT22;15515;45.588;5.276;2022-09-09T08:36:57;26.30;79.00
28253;DHT22;15515;45.588;5.276;2022-09-09T08:39:32;26.30;76.10
28253;DHT22;15515;45.588;5.276;2022-09-09T08:53:22;26.40;74.90
28253;DHT22;15515;45.588;5.276;2022-09-09T08:55:58;26.50;76.10
28253;DHT22;15515;45.588;5.276;2022-09-09T08:58:35;27.00;74.70
28253;DHT22;15515;45.588;5.276;2022-09-09T09:04:15;27.90;69.70
28253;DHT22;15515;45.588;5.276;2022-09-09T09:12:23;28.00;64.90
28253;DHT22;15515;45.588;5.276;2022-09-09T09:14:53;28.20;63.90
28253;DHT22;15515;45.588;5.276;2022-09-09T09:17:25;28.50;63.70
28253;DHT22;15515;45.588;5.276;2022-09-09T09:19:54;28.70;63.20
28253;DHT22;15515;45.588;5.276;2022-09-09T09:22:30;28.90;61.80
28253;DHT22;15515;45.588;5.276;2022-09-09T09:25:22;28.50;62.20
28253;DHT22;15515;45.588;5.276;2022-09-09T09:28:24;28.30;63.70
28253;DHT22;15515;45.588;5.276;2022-09-09T09:31:05;28.30;62.80
28253;DHT22;15515;45.588;5.276;2022-09-09T09:33:50;28.60;61.90
28253;DHT22;15515;45.588;5.276;2022-09-09T09:36:52;28.90;61.50
28253;DHT22;15515;45.588;5.276;2022-09-09T09:39:30;28.70;60.60
28253;DHT22;15515;45.588;5.276;2022-09-09T09:42:18;28.50;60.10
28253;DHT22;15515;45.588;5.276;2022-09-09T09:44:47;28.20;60.10
28253;DHT22;15515;45.588;5.276;2022-09-09T09:47:20;28.10;61.50
28253;DHT22;15515;45.588;5.276;2022-09-09T09:50:17;27.90;61.80
28253;DHT22;15515;45.588;5.276;2022-09-09T09:52:57;27.90;62.30
28253;DHT22;15515;45.588;5.276;2022-09-09T09:55:28;28.20;62.10
28253;DHT22;15515;45.588;5.276;2022-09-09T09:58:04;27.90;62.20
28253;DHT22;15515;45.588;5.276;2022-09-09T10:00:32;27.70;62.00
28253;DHT22;15515;45.588;5.276;2022-09-09T10:03:27;28.00;61.80
28253;DHT22;15515;45.588;5.276;2022-09-09T10:05:55;28.60;61.10
28253;DHT22;15515;45.588;5.276;2022-09-09T10:08:26;28.90;59.90
28253;DHT22;15515;45.588;5.276;2022-09-09T10:16:34;29.20;58.20
28253;DHT22;15515;45.588;5.276;2022-09-09T10:19:08;28.80;57.20
28253;DHT22;15515;45.588;5.276;2022-09-09T10:26:59;28.50;58.00
28253;DHT22;15515;45.588;5.276;2022-09-09T10:53:49;29.10;56.30
28253;DHT22;15515;45.588;5.276;2022-09-09T10:56:21;28.80;55.90
28253;DHT22;15515;45.588;5.276;2022-09-09T11:01:27;28.40;57.30
28253;DHT22;15515;45.588;5.276;2022-09-09T11:06:49;28.00;57.20
28253;DHT22;15515;45.588;5.276;2022-09-09T11:09:22;28.40;56.70
28253;DHT22;15515;45.588;5.276;2022-09-09T11:11:56;29.10;56.10
28253;DHT22;15515;45.588;5.276;2022-09-09T11:14:36;29.60;55.50
28253;DHT22;15515;45.588;5.276;2022-09-09T11:18:03;29.10;55.10
28253;DHT22;15515;45.588;5.276;2022-09-09T11:20:23;29.50;55.30
28253;DHT22;15515;45.588;5.276;2022-09-09T11:25:39;30.40;54.10
28253;DHT22;15515;45.588;5.276;2022-09-09T11:28:32;30.30;53.40
28253;DHT22;15515;45.588;5.276;2022-09-09T11:31:27;30.70;53.90
28253;DHT22;15515;45.588;5.276;2022-09-09T11:39:49;31.10;52.40
28253;DHT22;15515;45.588;5.276;2022-09-09T11:42:21;31.10;52.40
28253;DHT22;15515;45.588;5.276;2022-09-09T11:44:49;30.90;51.90
28253;DHT22;15515;45.588;5.276;2022-09-09T11:47:29;30.70;51.90
28253;DHT22;15515;45.588;5.276;2022-09-09T11:52:44;30.00;51.50
28253;DHT22;15515;45.588;5.276;2022-09-09T11:55:25;29.80;51.80
28253;DHT22;15515;45.588;5.276;2022-09-09T11:58:24;30.40;51.60
28253;DHT22;15515;45.588;5.276;2022-09-09T12:00:51;30.70;50.60
28253;DHT22;15515;45.588;5.276;2022-09-09T12:03:48;30.80;51.10
28253;DHT22;15515;45.588;5.276;2022-09-09T12:06:31;31.20;50.60
28253;DHT22;15515;45.588;5.276;2022-09-09T12:09:26;31.80;49.80
28253;DHT22;15515;45.588;5.276;2022-09-09T12:12:27;32.30;48.50
28253;DHT22;15515;45.588;5.276;2022-09-09T12:17:30;32.40;48.80
28253;DHT22;15515;45.588;5.276;2022-09-09T12:20:15;32.10;48.30
28253;DHT22;15515;45.588;5.276;2022-09-09T12:23:15;31.40;49.50
28253;DHT22;15515;45.588;5.276;2022-09-09T12:28:45;32.10;49.30
28253;DHT22;15515;45.588;5.276;2022-09-09T12:34:14;32.60;47.60
28253;DHT22;15515;45.588;5.276;2022-09-09T12:36:44;32.80;46.60
28253;DHT22;15515;45.588;5.276;2022-09-09T12:39:22;33.10;46.10
28253;DHT22;15515;45.588;5.276;2022-09-09T12:41:53;33.00;46.70
28253;DHT22;15515;45.588;5.276;2022-09-09T12:44:25;32.10;46.90
28253;DHT22;15515;45.588;5.276;2022-09-09T12:46:56;31.70;47.00
28253;DHT22;15515;45.588;5.276;2022-09-09T12:49:34;31.80;48.10
28253;DHT22;15515;45.588;5.276;2022-09-09T12:52:07;32.30;46.60
28253;DHT22;15515;45.588;5.276;2022-09-09T12:54:37;32.50;46.70
28253;DHT22;15515;45.588;5.276;2022-09-09T12:57:05;32.20;46.70
28253;DHT22;15515;45.588;5.276;2022-09-09T12:59:38;31.80;46.90
28253;DHT22;15515;45.588;5.276;2022-09-09T13:04:48;31.80;47.50
28253;DHT22;15515;45.588;5.276;2022-09-09T13:07:20;32.50;46.70
28253;DHT22;15515;45.588;5.276;2022-09-09T13:09:49;32.90;46.50
28253;DHT22;15515;45.588;5.276;2022-09-09T13:12:22;33.00;45.90
28253;DHT22;15515;45.588;5.276;2022-09-09T13:14:53;32.60;46.20
28253;DHT22;15515;45.588;5.276;2022-09-09T13:17:24;32.20;46.90
28253;DHT22;15515;45.588;5.276;2022-09-09T13:19:53;32.80;46.70
28253;DHT22;15515;45.588;5.276;2022-09-09T13:22:30;33.00;45.90
28253;DHT22;15515;45.588;5.276;2022-09-09T13:27:35;31.50;46.60
28253;DHT22;15515;45.588;5.276;2022-09-09T13:30:32;31.00;47.70
28253;DHT22;15515;45.588;5.276;2022-09-09T13:33:21;30.80;48.20
28253;DHT22;15515;45.588;5.276;2022-09-09T13:36:02;30.80;48.60
28253;DHT22;15515;45.588;5.276;2022-09-09T13:38:33;30.60;48.70
28253;DHT22;15515;45.588;5.276;2022-09-09T13:41:07;30.60;49.40
28253;DHT22;15515;45.588;5.276;2022-09-09T13:43:38;30.50;49.10
28253;DHT22;15515;45.588;5.276;2022-09-09T13:46:34;31.30;48.30
28253;DHT22;15515;45.588;5.276;2022-09-09T13:49:23;32.10;47.60
28253;DHT22;15515;45.588;5.276;2022-09-09T13:52:04;32.80;46.50
28253;DHT22;15515;45.588;5.276;2022-09-09T13:54:33;32.30;46.90
28253;DHT22;15515;45.588;5.276;2022-09-09T13:57:00;32.40;46.20
28253;DHT22;15515;45.588;5.276;2022-09-09T13:59:28;31.90;45.80
28253;DHT22;15515;45.588;5.276;2022-09-09T14:02:08;31.50;45.80
28253;DHT22;15515;45.588;5.276;2022-09-09T14:04:35;30.90;47.30
28253;DHT22;15515;45.588;5.276;2022-09-09T14:07:03;30.60;48.70
28253;DHT22;15515;45.588;5.276;2022-09-09T14:09:30;30.40;49.00
28253;DHT22;15515;45.588;5.276;2022-09-09T14:11:57;30.10;49.50
28253;DHT22;15515;45.588;5.276;2022-09-09T14:14:24;29.80;50.40
28253;DHT22;15515;45.588;5.276;2022-09-09T14:16:52;29.60;50.40
28253;DHT22;15515;45.588;5.276;2022-09-09T14:19:20;29.70;49.70
28253;DHT22;15515;45.588;5.276;2022-09-09T14:21:47;29.70;49.80
28253;DHT22;15515;45.588;5.276;2022-09-09T14:24:15;29.60;50.60
28253;DHT22;15515;45.588;5.276;2022-09-09T14:26:42;29.50;50.60
28253;DHT22;15515;45.588;5.276;2022-09-09T14:29:09;29.50;50.00
28253;DHT22;15515;45.588;5.276;2022-09-09T14:31:36;29.50;49.90
28253;DHT22;15515;45.588;5.276;2022-09-09T14:34:03;29.40;50.10
28253;DHT22;15515;45.588;5.276;2022-09-09T14:36:30;29.20;50.20
28253;DHT22;15515;45.588;5.276;2022-09-09T14:38:57;28.90;50.00
28253;DHT22;15515;45.588;5.276;2022-09-09T14:41:25;28.70;51.20
28253;DHT22;15515;45.588;5.276;2022-09-09T14:43:52;28.60;51.10
28253;DHT22;15515;45.588;5.276;2022-09-09T14:46:20;28.60;51.30
28253;DHT22;15515;45.588;5.276;2022-09-09T14:48:47;28.50;51.00
28253;DHT22;15515;45.588;5.276;2022-09-09T14:51:23;28.30;51.30
28253;DHT22;15515;45.588;5.276;2022-09-09T14:53:52;28.40;51.40
28253;DHT22;15515;45.588;5.276;2022-09-09T14:56:22;28.30;51.20
28253;DHT22;15515;45.588;5.276;2022-09-09T14:58:50;28.30;51.70
28253;DHT22;15515;45.588;5.276;2022-09-09T15:01:18;28.40;52.40
28253;DHT22;15515;45.588;5.276;2022-09-09T15:03:54;28.30;51.90
28253;DHT22;15515;45.588;5.276;2022-09-09T15:06:23;28.30;52.20
28253;DHT22;15515;45.588;5.276;2022-09-09T15:08:51;28.10;52.40
28253;DHT22;15515;45.588;5.276;2022-09-09T15:11:20;28.10;52.10
28253;DHT22;15515;45.588;5.276;2022-09-09T15:13:48;28.00;52.20
28253;DHT22;15515;45.588;5.276;2022-09-09T15:16:19;28.00;52.20
28253;DHT22;15515;45.588;5.276;2022-09-09T15:18:51;28.00;52.20
28253;DHT22;15515;45.588;5.276;2022-09-09T15:21:20;28.10;52.80
28253;DHT22;15515;45.588;5.276;2022-09-09T15:23:48;28.10;52.90
28253;DHT22;15515;45.588;5.276;2022-09-09T15:26:16;27.90;52.30
28253;DHT22;15515;45.588;5.276;2022-09-09T15:28:45;27.70;52.60
28253;DHT22;15515;45.588;5.276;2022-09-09T15:33:52;27.60;53.20
28253;DHT22;15515;45.588;5.276;2022-09-09T15:36:25;27.80;53.20
28253;DHT22;15515;45.588;5.276;2022-09-09T15:38:52;27.90;53.30
28253;DHT22;15515;45.588;5.276;2022-09-09T15:41:21;27.90;53.70
28253;DHT22;15515;45.588;5.276;2022-09-09T15:43:54;27.90;52.90
28253;DHT22;15515;45.588;5.276;2022-09-09T15:51:45;27.70;54.20
28253;DHT22;15515;45.588;5.276;2022-09-09T15:54:16;27.80;54.30
28253;DHT22;15515;45.588;5.276;2022-09-09T15:56:51;27.80;54.50
28253;DHT22;15515;45.588;5.276;2022-09-09T15:59:18;27.60;54.70
28253;DHT22;15515;45.588;5.276;2022-09-09T16:01:45;27.30;54.70
28253;DHT22;15515;45.588;5.276;2022-09-09T16:04:12;27.00;54.60
28253;DHT22;15515;45.588;5.276;2022-09-09T16:06:40;27.00;55.20
28253;DHT22;15515;45.588;5.276;2022-09-09T16:09:07;27.10;53.60
28253;DHT22;15515;45.588;5.276;2022-09-09T16:11:37;27.00;53.10
28253;DHT22;15515;45.588;5.276;2022-09-09T16:14:05;27.10;53.10
28253;DHT22;15515;45.588;5.276;2022-09-09T16:16:33;26.70;54.50
28253;DHT22;15515;45.588;5.276;2022-09-09T16:19:07;26.40;54.70
28253;DHT22;15515;45.588;5.276;2022-09-09T16:21:37;26.30;54.80
28253;DHT22;15515;45.588;5.276;2022-09-09T16:24:05;26.30;55.00
28253;DHT22;15515;45.588;5.276;2022-09-09T16:26:34;26.30;55.10
28253;DHT22;15515;45.588;5.276;2022-09-09T16:29:03;26.20;55.40
28253;DHT22;15515;45.588;5.276;2022-09-09T16:31:30;26.10;55.70
28253;DHT22;15515;45.588;5.276;2022-09-09T16:34:01;26.00;55.80
28253;DHT22;15515;45.588;5.276;2022-09-09T16:36:31;26.20;56.50
28253;DHT22;15515;45.588;5.276;2022-09-09T16:39:07;26.30;56.20
28253;DHT22;15515;45.588;5.276;2022-09-09T16:41:37;26.50;56.30
28253;DHT22;15515;45.588;5.276;2022-09-09T16:44:06;26.50;56.40
28253;DHT22;15515;45.588;5.276;2022-09-09T16:46:37;26.40;56.60
28253;DHT22;15515;45.588;5.276;2022-09-09T16:49:10;26.30;56.20
28253;DHT22;15515;45.588;5.276;2022-09-09T16:51:40;26.30;55.90
28253;DHT22;15515;45.588;5.276;2022-09-09T16:54:09;26.30;56.20
28253;DHT22;15515;45.588;5.276;2022-09-09T16:56:38;26.30;56.30
28253;DHT22;15515;45.588;5.276;2022-09-09T16:59:10;26.30;56.70
28253;DHT22;15515;45.588;5.276;2022-09-09T17:01:39;26.50;55.70
28253;DHT22;15515;45.588;5.276;2022-09-09T17:04:11;26.50;55.90
28253;DHT22;15515;45.588;5.276;2022-09-09T17:06:40;26.60;55.90
28253;DHT22;15515;45.588;5.276;2022-09-09T17:09:10;26.60;57.30
28253;DHT22;15515;45.588;5.276;2022-09-09T17:11:38;26.60;57.00
28253;DHT22;15515;45.588;5.276;2022-09-09T17:14:08;26.60;58.20
28253;DHT22;15515;45.588;5.276;2022-09-09T17:16:36;26.60;58.50
28253;DHT22;15515;45.588;5.276;2022-09-09T17:19:06;26.60;58.00
28253;DHT22;15515;45.588;5.276;2022-09-09T17:21:35;26.50;59.30
28253;DHT22;15515;45.588;5.276;2022-09-09T17:24:05;26.40;60.00
28253;DHT22;15515;45.588;5.276;2022-09-09T17:26:34;26.40;59.50
28253;DHT22;15515;45.588;5.276;2022-09-09T17:29:01;26.30;60.30
28253;DHT22;15515;45.588;5.276;2022-09-09T17:31:29;26.30;63.20
28253;DHT22;15515;45.588;5.276;2022-09-09T17:33:56;26.20;64.30
28253;DHT22;15515;45.588;5.276;2022-09-09T17:36:27;26.10;63.80
28253;DHT22;15515;45.588;5.276;2022-09-09T17:38:55;26.10;65.50
28253;DHT22;15515;45.588;5.276;2022-09-09T17:41:42;26.00;67.30
28253;DHT22;15515;45.588;5.276;2022-09-09T17:44:09;25.90;67.20
28253;DHT22;15515;45.588;5.276;2022-09-09T17:46:38;25.80;66.30
28253;DHT22;15515;45.588;5.276;2022-09-09T17:49:09;25.60;66.50
28253;DHT22;15515;45.588;5.276;2022-09-09T17:51:36;25.40;68.50
28253;DHT22;15515;45.588;5.276;2022-09-09T17:54:15;25.30;69.30
28253;DHT22;15515;45.588;5.276;2022-09-09T17:56:43;25.30;68.50
28253;DHT22;15515;45.588;5.276;2022-09-09T17:59:12;25.20;66.30
28253;DHT22;15515;45.588;5.276;2022-09-09T18:01:42;25.20;67.80
28253;DHT22;15515;45.588;5.276;2022-09-09T18:04:11;25.10;68.20
28253;DHT22;15515;45.588;5.276;2022-09-09T18:06:44;25.20;68.90
28253;DHT22;15515;45.588;5.276;2022-09-09T18:09:14;25.10;68.90
28253;DHT22;15515;45.588;5.276;2022-09-09T18:11:44;25.00;69.60
28253;DHT22;15515;45.588;5.276;2022-09-09T18:14:16;25.00;70.00
28253;DHT22;15515;45.588;5.276;2022-09-09T18:16:44;25.00;70.80
28253;DHT22;15515;45.588;5.276;2022-09-09T18:19:15;25.00;71.10
28253;DHT22;15515;45.588;5.276;2022-09-09T18:21:43;24.90;70.70
28253;DHT22;15515;45.588;5.276;2022-09-09T18:24:11;25.00;70.40
28253;DHT22;15515;45.588;5.276;2022-09-09T18:26:40;25.00;70.90
28253;DHT22;15515;45.588;5.276;2022-09-09T18:29:09;25.00;71.60
28253;DHT22;15515;45.588;5.276;2022-09-09T18:31:37;25.10;71.90
28253;DHT22;15515;45.588;5.276;2022-09-09T18:34:06;25.20;71.80
28253;DHT22;15515;45.588;5.276;2022-09-09T18:36:37;25.20;71.60
28253;DHT22;15515;45.588;5.276;2022-09-09T18:39:07;25.20;71.30
28253;DHT22;15515;45.588;5.276;2022-09-09T18:41:37;25.20;70.30
28253;DHT22;15515;45.588;5.276;2022-09-09T18:44:10;25.30;70.60